Big Bear Station Historical Data
Daily Summary for November 18, 2019 Units:  Both    English   Metric
Next Day »
Daily Weekly Monthly Yearly Custom
  High: Low: Average:
Temperature: 66.4 °F /  19.1 °C 29.8 °F /  -1.2 °C 44.2 °F /  6.8 °C
Dew Point: 29 °F /  -1.7 °C 13 °F /  -10.6 °C 21 °F /  -6.1 °C
Humidity: 68% 19% 43%
Wind Speed: 3.2mph /  5.1km/h - 0.3mph /  0.5km/h
Wind Gust: -999mph /  -1607.7km/h - -
Wind- - WNW
Pressure: 23.61 in /  799.4 hPa 23.48 in /  795 hPa -
Precipitation: 0 in /  0 mm    
Historical Graphs
 
 
Tabular Data for November 18, 2019
Time Temperature Dew Point Pressure Wind Wind Speed Wind Gust Humidity Rainfall Rate (Hourly)
00:09 31.8 °F /  -0.1 °C 21.7 °F /  -5.7 °C 23.61in /  799.4hPa Calm   -999mph /  -1607.7km/h 66% 0.00in /  0mm
00:24 31.3 °F /  -0.4 °C 20.2 °F /  -6.6 °C 23.61in /  799.4hPa Calm   -999mph /  -1607.7km/h 63% 0.00in /  0mm
00:40 31.8 °F /  -0.1 °C 21.4 °F /  -5.9 °C 23.61in /  799.4hPa South 2.2mph /  3.5km/h -999mph /  -1607.7km/h 65% 0.00in /  0mm
00:55 31.3 °F /  -0.4 °C 20.5 °F /  -6.4 °C 23.61in /  799.4hPa Calm   -999mph /  -1607.7km/h 64% 0.00in /  0mm
01:10 31.6 °F /  -0.2 °C 20.4 °F /  -6.4 °C 23.61in /  799.4hPa Calm   -999mph /  -1607.7km/h 63% 0.00in /  0mm
01:25 30.9 °F /  -0.6 °C 19.8 °F /  -6.8 °C 23.61in /  799.4hPa Calm   -999mph /  -1607.7km/h 63% 0.00in /  0mm
01:40 30.6 °F /  -0.8 °C 20.6 °F /  -6.3 °C 23.61in /  799.4hPa Calm   -999mph /  -1607.7km/h 66% 0.00in /  0mm
01:56 30.6 °F /  -0.8 °C 20.2 °F /  -6.6 °C 23.60in /  799.1hPa South 1.1mph /  1.8km/h -999mph /  -1607.7km/h 65% 0.00in /  0mm
02:11 30.9 °F /  -0.6 °C 19.4 °F /  -7 °C 23.60in /  799.1hPa Calm   -999mph /  -1607.7km/h 62% 0.00in /  0mm
02:26 30.7 °F /  -0.7 °C 18.8 °F /  -7.3 °C 23.60in /  799.1hPa Calm   -999mph /  -1607.7km/h 61% 0.00in /  0mm
02:41 31.1 °F /  -0.5 °C 20.3 °F /  -6.5 °C 23.59in /  798.8hPa Calm   -999mph /  -1607.7km/h 64% 0.00in /  0mm
02:56 30.6 °F /  -0.8 °C 21.3 °F /  -5.9 °C 23.59in /  798.8hPa Calm   -999mph /  -1607.7km/h 68% 0.00in /  0mm
03:12 31.1 °F /  -0.5 °C 21.4 °F /  -5.9 °C 23.59in /  798.8hPa Calm   -999mph /  -1607.7km/h 67% 0.00in /  0mm
03:27 30.7 °F /  -0.7 °C 20.7 °F /  -6.3 °C 23.59in /  798.8hPa Calm   -999mph /  -1607.7km/h 66% 0.00in /  0mm
03:42 30.7 °F /  -0.7 °C 21.4 °F /  -5.9 °C 23.59in /  798.8hPa Calm   -999mph /  -1607.7km/h 68% 0.00in /  0mm
03:57 31.1 °F /  -0.5 °C 21.1 °F /  -6.1 °C 23.59in /  798.8hPa Calm   -999mph /  -1607.7km/h 66% 0.00in /  0mm
04:13 30.9 °F /  -0.6 °C 21.2 °F /  -6 °C 23.59in /  798.8hPa Calm   -999mph /  -1607.7km/h 67% 0.00in /  0mm
04:28 30.6 °F /  -0.8 °C 18.4 °F /  -7.6 °C 23.59in /  798.8hPa Calm   -999mph /  -1607.7km/h 60% 0.00in /  0mm
04:43 30.4 °F /  -0.9 °C 13 °F /  -10.6 °C 23.59in /  798.8hPa Calm   -999mph /  -1607.7km/h 48% 0.00in /  0mm
04:58 30.4 °F /  -0.9 °C 15.3 °F /  -9.3 °C 23.59in /  798.8hPa Calm   -999mph /  -1607.7km/h 53% 0.00in /  0mm
05:13 30.2 °F /  -1 °C 16.4 °F /  -8.7 °C 23.59in /  798.8hPa Calm   -999mph /  -1607.7km/h 56% 0.00in /  0mm
05:29 29.8 °F /  -1.2 °C 17.2 °F /  -8.2 °C 23.58in /  798.4hPa Calm   -999mph /  -1607.7km/h 59% 0.00in /  0mm
05:44 30.6 °F /  -0.8 °C 17.2 °F /  -8.2 °C 23.59in /  798.8hPa South 1.7mph /  2.7km/h -999mph /  -1607.7km/h 57% 0.00in /  0mm
05:59 29.8 °F /  -1.2 °C 15.6 °F /  -9.1 °C 23.59in /  798.8hPa Calm   -999mph /  -1607.7km/h 55% 0.00in /  0mm
06:14 29.8 °F /  -1.2 °C 15.6 °F /  -9.1 °C 23.59in /  798.8hPa Calm   -999mph /  -1607.7km/h 55% 0.00in /  0mm
06:29 29.8 °F /  -1.2 °C 18.4 °F /  -7.6 °C 23.59in /  798.8hPa Calm   -999mph /  -1607.7km/h 62% 0.00in /  0mm
06:45 30.2 °F /  -1 °C 19.8 °F /  -6.8 °C 23.59in /  798.8hPa Calm   -999mph /  -1607.7km/h 65% 0.00in /  0mm
07:00 30 °F /  -1.1 °C 20 °F /  -6.7 °C 23.59in /  798.8hPa Calm   -999mph /  -1607.7km/h 66% 0.00in /  0mm
07:15 30.4 °F /  -0.9 °C 19.7 °F /  -6.8 °C 23.59in /  798.8hPa Calm   -999mph /  -1607.7km/h 64% 0.00in /  0mm
07:30 31.3 °F /  -0.4 °C 20.5 °F /  -6.4 °C 23.59in /  798.8hPa Calm   -999mph /  -1607.7km/h 64% 0.00in /  0mm
07:45 32 °F /  0 °C 19.7 °F /  -6.8 °C 23.59in /  798.8hPa Calm   -999mph /  -1607.7km/h 60% 0.00in /  0mm
08:01 33.1 °F /  0.6 °C 19.5 °F /  -6.9 °C 23.59in /  798.8hPa Calm   -999mph /  -1607.7km/h 57% 0.00in /  0mm
08:16 37.8 °F /  3.2 °C 19.9 °F /  -6.7 °C 23.59in /  798.8hPa Calm   -999mph /  -1607.7km/h 48% 0.00in /  0mm
08:31 37 °F /  2.8 °C 19.1 °F /  -7.2 °C 23.59in /  798.8hPa Calm   -999mph /  -1607.7km/h 48% 0.00in /  0mm
08:46 38.5 °F /  3.6 °C 22.8 °F /  -5.1 °C 23.59in /  798.8hPa Calm   -999mph /  -1607.7km/h 53% 0.00in /  0mm
09:01 40.6 °F /  4.8 °C 23.9 °F /  -4.5 °C 23.59in /  798.8hPa Calm   -999mph /  -1607.7km/h 51% 0.00in /  0mm
09:17 43.3 °F /  6.3 °C 21.7 °F /  -5.7 °C 23.59in /  798.8hPa Calm   -999mph /  -1607.7km/h 42% 0.00in /  0mm
09:32 47.5 °F /  8.6 °C 25 °F /  -3.9 °C 23.58in /  798.4hPa Calm   -999mph /  -1607.7km/h 41% 0.00in /  0mm
09:47 49.8 °F /  9.9 °C 23.2 °F /  -4.9 °C 23.58in /  798.4hPa Calm   -999mph /  -1607.7km/h 35% 0.00in /  0mm
10:02 52.5 °F /  11.4 °C 24.9 °F /  -3.9 °C 23.58in /  798.4hPa Calm   -999mph /  -1607.7km/h 34% 0.00in /  0mm
10:18 56.8 °F /  13.8 °C 28 °F /  -2.2 °C 23.57in /  798.1hPa Calm   -999mph /  -1607.7km/h 33% 0.00in /  0mm
10:33 59 °F /  15 °C 27.6 °F /  -2.4 °C 23.57in /  798.1hPa Calm   -999mph /  -1607.7km/h 30% 0.00in /  0mm
10:49 59.7 °F /  15.4 °C 29 °F /  -1.7 °C 23.57in /  798.1hPa Calm   -999mph /  -1607.7km/h 31% 0.00in /  0mm
11:04 61.3 °F /  16.3 °C 27.9 °F /  -2.3 °C 23.56in /  797.7hPa Calm   -999mph /  -1607.7km/h 28% 0.00in /  0mm
11:19 62.8 °F /  17.1 °C 23.4 °F /  -4.8 °C 23.55in /  797.4hPa WNW 2.7mph /  4.3km/h -999mph /  -1607.7km/h 22% 0.00in /  0mm
11:34 64.6 °F /  18.1 °C 22.6 °F /  -5.2 °C 23.54in /  797.1hPa Calm   -999mph /  -1607.7km/h 20% 0.00in /  0mm
11:50 64.8 °F /  18.2 °C 23.9 °F /  -4.5 °C 23.54in /  797.1hPa NW 3.2mph /  5.1km/h -999mph /  -1607.7km/h 21% 0.00in /  0mm
12:05 64.8 °F /  18.2 °C 22.8 °F /  -5.1 °C 23.53in /  796.7hPa North 1.7mph /  2.7km/h -999mph /  -1607.7km/h 20% 0.00in /  0mm
12:20 65.1 °F /  18.4 °C 21.8 °F /  -5.7 °C 23.53in /  796.7hPa NNW 2.2mph /  3.5km/h -999mph /  -1607.7km/h 19% 0.00in /  0mm
12:35 66.4 °F /  19.1 °C 22.9 °F /  -5.1 °C 23.52in /  796.4hPa NW 2.7mph /  4.3km/h -999mph /  -1607.7km/h 19% 0.00in /  0mm
12:51 65.3 °F /  18.5 °C 23.2 °F /  -4.9 °C 23.52in /  796.4hPa Calm   -999mph /  -1607.7km/h 20% 0.00in /  0mm
13:06 64.8 °F /  18.2 °C 23.9 °F /  -4.5 °C 23.51in /  796hPa NW 1.7mph /  2.7km/h -999mph /  -1607.7km/h 21% 0.00in /  0mm
13:21 64.6 °F /  18.1 °C 22.6 °F /  -5.2 °C 23.51in /  796hPa Calm   -999mph /  -1607.7km/h 20% 0.00in /  0mm
13:36 63.9 °F /  17.7 °C 24.3 °F /  -4.3 °C 23.51in /  796hPa NW 2.2mph /  3.5km/h -999mph /  -1607.7km/h 22% 0.00in /  0mm
13:51 64 °F /  17.8 °C 24.4 °F /  -4.2 °C 23.50in /  795.7hPa WNW 2.2mph /  3.5km/h -999mph /  -1607.7km/h 22% 0.00in /  0mm
14:07 63.7 °F /  17.6 °C 23 °F /  -5 °C 23.50in /  795.7hPa Calm   -999mph /  -1607.7km/h 21% 0.00in /  0mm
14:22 62.6 °F /  17 °C 24.3 °F /  -4.3 °C 23.50in /  795.7hPa WNW 1.7mph /  2.7km/h -999mph /  -1607.7km/h 23% 0.00in /  0mm
14:37 61.7 °F /  16.5 °C 24.5 °F /  -4.2 °C 23.50in /  795.7hPa WNW 2.7mph /  4.3km/h -999mph /  -1607.7km/h 24% 0.00in /  0mm
14:52 60.6 °F /  15.9 °C 24.6 °F /  -4.1 °C 23.50in /  795.7hPa Calm   -999mph /  -1607.7km/h 25% 0.00in /  0mm
15:08 60.4 °F /  15.8 °C 22.4 °F /  -5.3 °C 23.50in /  795.7hPa Calm   -999mph /  -1607.7km/h 23% 0.00in /  0mm
15:23 59.7 °F /  15.4 °C 22.8 °F /  -5.1 °C 23.50in /  795.7hPa Calm   -999mph /  -1607.7km/h 24% 0.00in /  0mm
15:38 58.8 °F /  14.9 °C 22.1 °F /  -5.5 °C 23.50in /  795.7hPa Calm   -999mph /  -1607.7km/h 24% 0.00in /  0mm
15:53 57.7 °F /  14.3 °C 21.1 °F /  -6.1 °C 23.50in /  795.7hPa Calm   -999mph /  -1607.7km/h 24% 0.00in /  0mm
16:09 57.2 °F /  14 °C 20.7 °F /  -6.3 °C 23.50in /  795.7hPa Calm   -999mph /  -1607.7km/h 24% 0.00in /  0mm
16:24 56.3 °F /  13.5 °C 20.9 °F /  -6.2 °C 23.50in /  795.7hPa Calm   -999mph /  -1607.7km/h 25% 0.00in /  0mm
16:39 55.2 °F /  12.9 °C 20 °F /  -6.7 °C 23.50in /  795.7hPa Calm   -999mph /  -1607.7km/h 25% 0.00in /  0mm
16:54 53.4 °F /  11.9 °C 20.2 °F /  -6.6 °C 23.51in /  796hPa Calm   -999mph /  -1607.7km/h 27% 0.00in /  0mm
17:09 52.5 °F /  11.4 °C 20.3 °F /  -6.5 °C 23.51in /  796hPa Calm   -999mph /  -1607.7km/h 28% 0.00in /  0mm
17:25 52 °F /  11.1 °C 19.9 °F /  -6.7 °C 23.51in /  796hPa Calm   -999mph /  -1607.7km/h 28% 0.00in /  0mm
17:40 50.9 °F /  10.5 °C 18.9 °F /  -7.3 °C 23.51in /  796hPa Calm   -999mph /  -1607.7km/h 28% 0.00in /  0mm
17:55 49.6 °F /  9.8 °C 19.4 °F /  -7 °C 23.51in /  796hPa Calm   -999mph /  -1607.7km/h 30% 0.00in /  0mm
18:10 48.6 °F /  9.2 °C 18.5 °F /  -7.5 °C 23.51in /  796hPa Calm   -999mph /  -1607.7km/h 30% 0.00in /  0mm
18:25 47.8 °F /  8.8 °C 19.3 °F /  -7.1 °C 23.51in /  796hPa Calm   -999mph /  -1607.7km/h 32% 0.00in /  0mm
18:41 47.3 °F /  8.5 °C 18.9 °F /  -7.3 °C 23.52in /  796.4hPa Calm   -999mph /  -1607.7km/h 32% 0.00in /  0mm
18:56 46.6 °F /  8.1 °C 18.3 °F /  -7.6 °C 23.51in /  796hPa Calm   -999mph /  -1607.7km/h 32% 0.00in /  0mm
19:11 45.3 °F /  7.4 °C 18.6 °F /  -7.4 °C 23.52in /  796.4hPa Calm   -999mph /  -1607.7km/h 34% 0.00in /  0mm
19:26 44.1 °F /  6.7 °C 19.5 °F /  -6.9 °C 23.51in /  796hPa Calm   -999mph /  -1607.7km/h 37% 0.00in /  0mm
19:41 43.3 °F /  6.3 °C 23.4 °F /  -4.8 °C 23.51in /  796hPa Calm   -999mph /  -1607.7km/h 45% 0.00in /  0mm
19:57 42.8 °F /  6 °C 21.8 °F /  -5.7 °C 23.51in /  796hPa Calm   -999mph /  -1607.7km/h 43% 0.00in /  0mm
20:12 42.8 °F /  6 °C 20.7 °F /  -6.3 °C 23.51in /  796hPa Calm   -999mph /  -1607.7km/h 41% 0.00in /  0mm
20:27 42.3 °F /  5.7 °C 24 °F /  -4.4 °C 23.50in /  795.7hPa Calm   -999mph /  -1607.7km/h 48% 0.00in /  0mm
20:42 41.9 °F /  5.5 °C 23.6 °F /  -4.7 °C 23.50in /  795.7hPa Calm   -999mph /  -1607.7km/h 48% 0.00in /  0mm
20:58 41.4 °F /  5.2 °C 20.6 °F /  -6.3 °C 23.50in /  795.7hPa Calm   -999mph /  -1607.7km/h 43% 0.00in /  0mm
21:13 40.8 °F /  4.9 °C 20 °F /  -6.7 °C 23.50in /  795.7hPa Calm   -999mph /  -1607.7km/h 43% 0.00in /  0mm
21:29 40.1 °F /  4.5 °C 19.4 °F /  -7 °C 23.49in /  795.4hPa Calm   -999mph /  -1607.7km/h 43% 0.00in /  0mm
21:44 39.7 °F /  4.3 °C 20.1 °F /  -6.6 °C 23.49in /  795.4hPa Calm   -999mph /  -1607.7km/h 45% 0.00in /  0mm
21:59 39.4 °F /  4.1 °C 18.7 °F /  -7.4 °C 23.50in /  795.7hPa Calm   -999mph /  -1607.7km/h 43% 0.00in /  0mm
22:14 39 °F /  3.9 °C 18.4 °F /  -7.6 °C 23.49in /  795.4hPa Calm   -999mph /  -1607.7km/h 43% 0.00in /  0mm
22:29 38.7 °F /  3.7 °C 19.7 °F /  -6.8 °C 23.49in /  795.4hPa Calm   -999mph /  -1607.7km/h 46% 0.00in /  0mm
22:45 38.3 °F /  3.5 °C 19.3 °F /  -7.1 °C 23.49in /  795.4hPa Calm   -999mph /  -1607.7km/h 46% 0.00in /  0mm
23:00 38.5 °F /  3.6 °C 19 °F /  -7.2 °C 23.49in /  795.4hPa Calm   -999mph /  -1607.7km/h 45% 0.00in /  0mm
23:15 38.7 °F /  3.7 °C 20.2 °F /  -6.6 °C 23.49in /  795.4hPa Calm   -999mph /  -1607.7km/h 47% 0.00in /  0mm
23:30 39 °F /  3.9 °C 20 °F /  -6.7 °C 23.48in /  795hPa Calm   -999mph /  -1607.7km/h 46% 0.00in /  0mm
23:45 39.2 °F /  4 °C 21.1 °F /  -6.1 °C 23.48in /  795hPa Calm   -999mph /  -1607.7km/h 48% 0.00in /  0mm
Big Bear CA Weather